Time;durP1;ratioP1;P1;durP2;ratioP2;P2;SDS_P1;SDS_P2;PMS_P1;PMS_P2;Temp;Humidity;BMP_temperature;BMP_pressure;BME280_temperature;BME280_humidity;BME280_pressure;Samples;Min_cycle;Max_cycle;Signal;HPM_P1;HPM_P2
2022/11/26 00:00:39;;;;;;;94.03;37.93;;;;;;;;;;4990781;28;20468;-68
2022/11/26 00:03:24;;;;;;;95.93;37.90;;;;;;;;;;4991512;28;20424;-68
2022/11/26 00:05:51;;;;;;;99.03;37.93;;;;;;;;;;4991861;28;20437;-69
2022/11/26 00:08:36;;;;;;;86.53;35.90;;;;;;;;;;4990992;28;20456;-68
2022/11/26 00:11:02;;;;;;;95.97;37.27;;;;;;;;;;4990441;28;20435;-68
2022/11/26 00:13:47;;;;;;;96.57;37.07;;;;;;;;;;4995185;28;20434;-69
2022/11/26 00:16:14;;;;;;;89.67;36.67;;;;;;;;;;4991898;28;20465;-68
2022/11/26 00:18:41;;;;;;;87.00;36.23;;;;;;;;;;4991630;28;20581;-69
2022/11/26 00:21:12;;;;;;;87.30;36.43;;;;;;;;;;4990423;28;20531;-68
2022/11/26 00:23:39;;;;;;;98.23;36.03;;;;;;;;;;4991674;28;20444;-68
2022/11/26 00:26:05;;;;;;;92.50;36.47;;;;;;;;;;4991234;28;21255;-69
2022/11/26 00:28:33;;;;;;;89.53;34.90;;;;;;;;;;4990693;28;20490;-68
2022/11/26 00:31:00;;;;;;;84.53;36.40;;;;;;;;;;4991252;28;20438;-68
2022/11/26 00:33:44;;;;;;;89.00;35.53;;;;;;;;;;4991513;28;20423;-69
2022/11/26 00:36:14;;;;;;;93.20;37.73;;;;;;;;;;4991330;28;20431;-68
2022/11/26 00:38:41;;;;;;;79.60;35.30;;;;;;;;;;4990015;28;20491;-69
2022/11/26 00:41:17;;;;;;;87.40;36.43;;;;;;;;;;4990242;28;20530;-68
2022/11/26 00:43:44;;;;;;;99.47;37.07;;;;;;;;;;4990270;28;20424;-68
2022/11/26 00:46:14;;;;;;;97.97;37.07;;;;;;;;;;4991057;28;20528;-68
2022/11/26 00:48:40;;;;;;;88.30;36.63;;;;;;;;;;4991098;28;20468;-68
2022/11/26 00:51:26;;;;;;;92.40;35.43;;;;;;;;;;4990946;28;21268;-68
2022/11/26 00:53:53;;;;;;;101.90;36.83;;;;;;;;;;4989817;28;20429;-68
2022/11/26 00:56:20;;;;;;;104.10;39.43;;;;;;;;;;4988865;28;20498;-68
2022/11/26 00:58:47;;;;;;;96.23;36.17;;;;;;;;;;4989868;28;20554;-68
2022/11/26 01:01:20;;;;;;;93.70;35.50;;;;;;;;;;4991016;28;20483;-68
2022/11/26 01:03:47;;;;;;;99.93;37.27;;;;;;;;;;4989712;28;20889;-69
2022/11/26 01:06:22;;;;;;;95.13;36.03;;;;;;;;;;4990788;28;20519;-68
2022/11/26 01:08:49;;;;;;;102.87;37.37;;;;;;;;;;4989595;28;20443;-68
2022/11/26 01:11:17;;;;;;;98.33;36.83;;;;;;;;;;4990614;28;20435;-69
2022/11/26 01:13:43;;;;;;;99.43;37.13;;;;;;;;;;5008614;28;20464;-69
2022/11/26 01:16:28;;;;;;;95.60;36.43;;;;;;;;;;5010029;28;20835;-69
2022/11/26 01:18:55;;;;;;;91.47;36.40;;;;;;;;;;4992892;28;20470;-69
2022/11/26 01:21:39;;;;;;;97.00;35.67;;;;;;;;;;4989316;28;20493;-69
2022/11/26 01:24:06;;;;;;;97.07;37.43;;;;;;;;;;4989089;28;20522;-69
2022/11/26 01:26:50;;;;;;;90.87;33.60;;;;;;;;;;4990396;28;20428;-69
2022/11/26 01:29:17;;;;;;;101.97;36.50;;;;;;;;;;4990414;28;20511;-69
2022/11/26 01:31:44;;;;;;;99.97;36.40;;;;;;;;;;4990519;28;20459;-69
2022/11/26 01:34:11;;;;;;;101.13;37.73;;;;;;;;;;4990368;28;20482;-69
2022/11/26 01:36:38;;;;;;;105.40;38.03;;;;;;;;;;4990353;28;20468;-69
2022/11/26 01:39:05;;;;;;;100.27;37.57;;;;;;;;;;4988809;28;20554;-69
2022/11/26 01:41:35;;;;;;;99.10;36.93;;;;;;;;;;4989644;28;20468;-69
2022/11/26 01:44:01;;;;;;;100.63;37.80;;;;;;;;;;4990173;28;20494;-69
2022/11/26 01:46:46;;;;;;;103.23;38.10;;;;;;;;;;4989498;28;21117;-69
2022/11/26 01:49:16;;;;;;;109.93;38.47;;;;;;;;;;4988913;28;20451;-69
2022/11/26 01:51:43;;;;;;;94.93;37.57;;;;;;;;;;4990170;28;20920;-69
2022/11/26 01:54:10;;;;;;;105.07;37.47;;;;;;;;;;4988451;28;20439;-69
2022/11/26 01:56:37;;;;;;;99.93;36.87;;;;;;;;;;4987841;28;22528;-69
2022/11/26 01:59:13;;;;;;;94.30;37.43;;;;;;;;;;4989778;28;20815;-69
2022/11/26 02:01:39;;;;;;;91.50;36.50;;;;;;;;;;4990178;28;21368;-69
2022/11/26 02:04:24;;;;;;;94.17;35.33;;;;;;;;;;4989683;28;20486;-68
2022/11/26 02:06:51;;;;;;;91.63;36.83;;;;;;;;;;4989964;28;20423;-69
2022/11/26 02:09:18;;;;;;;91.93;34.27;;;;;;;;;;4988751;28;20964;-68
2022/11/26 02:11:44;;;;;;;96.83;36.10;;;;;;;;;;4988817;28;20760;-68
2022/11/26 02:14:11;;;;;;;95.37;35.97;;;;;;;;;;4988253;28;21136;-68
2022/11/26 02:16:53;;;;;;;93.70;35.17;;;;;;;;;;4990101;28;20432;-68
2022/11/26 02:19:35;;;;;;;87.40;36.17;;;;;;;;;;4990147;28;20545;-68
2022/11/26 02:22:37;;;;;;;89.53;34.33;;;;;;;;;;4988334;28;20446;-68
2022/11/26 02:25:06;;;;;;;97.40;34.57;;;;;;;;;;4967735;28;20560;-69
2022/11/26 02:27:50;;;;;;;96.37;37.23;;;;;;;;;;4986960;28;20432;-68
2022/11/26 02:30:16;;;;;;;85.83;34.07;;;;;;;;;;4989186;28;20527;-68
2022/11/26 02:32:50;;;;;;;92.13;34.87;;;;;;;;;;4989629;28;20834;-68
2022/11/26 02:35:19;;;;;;;89.63;34.50;;;;;;;;;;4988642;28;20431;-68
2022/11/26 02:38:09;;;;;;;95.53;34.57;;;;;;;;;;4988431;28;20427;-68
2022/11/26 02:40:35;;;;;;;80.53;33.70;;;;;;;;;;4988674;28;20476;-68
2022/11/26 02:43:02;;;;;;;84.40;34.43;;;;;;;;;;4988060;28;21033;-68
2022/11/26 02:45:38;;;;;;;80.40;32.63;;;;;;;;;;4988209;28;20777;-69
2022/11/26 02:48:07;;;;;;;85.33;34.60;;;;;;;;;;4988209;28;20963;-69
2022/11/26 02:50:35;;;;;;;78.30;32.37;;;;;;;;;;4988409;28;20436;-68
2022/11/26 02:53:02;;;;;;;81.30;33.13;;;;;;;;;;4988094;28;20439;-68
2022/11/26 02:55:30;;;;;;;80.80;32.87;;;;;;;;;;4987718;28;20526;-69
2022/11/26 02:57:56;;;;;;;76.30;34.07;;;;;;;;;;4988164;28;20483;-68
2022/11/26 03:00:23;;;;;;;82.23;33.73;;;;;;;;;;4988171;28;20567;-68
2022/11/26 03:03:15;;;;;;;92.37;36.77;;;;;;;;;;4989274;28;20416;-68
2022/11/26 03:05:42;;;;;;;80.60;33.73;;;;;;;;;;4989389;28;20836;-69
2022/11/26 03:08:26;;;;;;;74.57;31.23;;;;;;;;;;4988189;28;20480;-68
2022/11/26 03:10:53;;;;;;;79.37;32.63;;;;;;;;;;4991451;28;20518;-69
2022/11/26 03:13:19;;;;;;;89.80;34.00;;;;;;;;;;5007588;28;20439;-68
2022/11/26 03:15:46;;;;;;;77.97;32.40;;;;;;;;;;5011955;28;20561;-69
2022/11/26 03:18:13;;;;;;;77.57;31.43;;;;;;;;;;4997026;28;20550;-69
2022/11/26 03:20:39;;;;;;;76.30;31.90;;;;;;;;;;4993071;28;21415;-69
2022/11/26 03:23:06;;;;;;;70.17;31.30;;;;;;;;;;4991116;28;20440;-68
2022/11/26 03:25:32;;;;;;;74.93;31.30;;;;;;;;;;4991668;28;20803;-68
2022/11/26 03:28:16;;;;;;;73.70;31.37;;;;;;;;;;4991942;28;20424;-68
2022/11/26 03:30:43;;;;;;;65.87;31.43;;;;;;;;;;4992386;28;20432;-69
2022/11/26 03:33:10;;;;;;;78.03;31.50;;;;;;;;;;4991771;28;20513;-69
2022/11/26 03:35:36;;;;;;;65.53;28.30;;;;;;;;;;4991386;28;20462;-68
2022/11/26 03:38:03;;;;;;;65.77;28.90;;;;;;;;;;4992151;28;20443;-69
2022/11/26 03:40:29;;;;;;;81.90;33.43;;;;;;;;;;4992515;28;20510;-69
2022/11/26 03:42:56;;;;;;;82.40;33.10;;;;;;;;;;4992356;28;20503;-69
2022/11/26 03:45:22;;;;;;;71.83;31.50;;;;;;;;;;4992262;28;20858;-69
2022/11/26 03:47:49;;;;;;;83.87;33.17;;;;;;;;;;4992139;28;20433;-69
2022/11/26 03:50:16;;;;;;;78.80;30.97;;;;;;;;;;4992291;28;20432;-69
2022/11/26 03:52:42;;;;;;;68.97;30.30;;;;;;;;;;4992182;28;20448;-69
2022/11/26 03:55:09;;;;;;;67.87;29.77;;;;;;;;;;4992122;28;21045;-68
2022/11/26 03:57:35;;;;;;;69.07;29.40;;;;;;;;;;4990393;28;20887;-69
2022/11/26 04:00:03;;;;;;;66.53;27.87;;;;;;;;;;4990792;28;20468;-69
2022/11/26 04:02:30;;;;;;;68.23;28.90;;;;;;;;;;4990706;28;20523;-69
2022/11/26 04:04:56;;;;;;;63.17;28.80;;;;;;;;;;4990887;28;20535;-69
2022/11/26 04:07:23;;;;;;;73.60;30.23;;;;;;;;;;4992105;28;20492;-69
2022/11/26 04:09:49;;;;;;;70.33;30.20;;;;;;;;;;4990293;28;20524;-69
2022/11/26 04:12:16;;;;;;;72.17;32.40;;;;;;;;;;4991061;28;20452;-69
2022/11/26 04:14:43;;;;;;;77.77;33.67;;;;;;;;;;4991467;28;20579;-69
2022/11/26 04:17:10;;;;;;;83.73;32.90;;;;;;;;;;4974152;28;21320;-69
2022/11/26 04:19:37;;;;;;;61.37;28.73;;;;;;;;;;4991689;28;20880;-69
2022/11/26 04:22:03;;;;;;;78.33;33.07;;;;;;;;;;4991450;28;20479;-68
2022/11/26 04:24:30;;;;;;;75.73;32.37;;;;;;;;;;4991367;28;20488;-69
2022/11/26 04:26:56;;;;;;;72.50;31.87;;;;;;;;;;4990307;28;20856;-69
2022/11/26 04:29:23;;;;;;;73.47;31.47;;;;;;;;;;4990252;28;20443;-69
2022/11/26 04:31:50;;;;;;;68.50;29.10;;;;;;;;;;4991247;28;20450;-69
2022/11/26 04:34:16;;;;;;;75.23;31.47;;;;;;;;;;4991743;28;20796;-69
2022/11/26 04:36:43;;;;;;;77.50;32.47;;;;;;;;;;4990629;28;20487;-68
2022/11/26 04:39:10;;;;;;;65.93;30.37;;;;;;;;;;4991080;28;20476;-69
2022/11/26 04:41:36;;;;;;;74.23;31.37;;;;;;;;;;4990081;28;20959;-69
2022/11/26 04:44:03;;;;;;;71.27;31.57;;;;;;;;;;4991173;28;20430;-69
2022/11/26 04:46:29;;;;;;;70.40;30.33;;;;;;;;;;4990044;28;20541;-69
2022/11/26 04:48:56;;;;;;;71.07;31.43;;;;;;;;;;4991202;28;20511;-69
2022/11/26 04:51:22;;;;;;;67.07;30.27;;;;;;;;;;4990454;28;20448;-68
2022/11/26 04:53:49;;;;;;;66.43;30.67;;;;;;;;;;4990908;28;20459;-69
2022/11/26 04:56:21;;;;;;;67.83;29.77;;;;;;;;;;4990774;28;20486;-69
2022/11/26 04:58:47;;;;;;;68.20;29.57;;;;;;;;;;4990919;28;20436;-69
2022/11/26 05:01:14;;;;;;;59.53;28.30;;;;;;;;;;4990915;28;20477;-69
2022/11/26 05:03:40;;;;;;;61.37;28.73;;;;;;;;;;4989391;28;20459;-69
2022/11/26 05:06:07;;;;;;;68.33;30.07;;;;;;;;;;4990744;28;20438;-69
2022/11/26 05:08:33;;;;;;;68.93;30.37;;;;;;;;;;4973599;28;20451;-69
2022/11/26 05:11:01;;;;;;;73.63;31.33;;;;;;;;;;4990557;28;20441;-69
2022/11/26 05:13:28;;;;;;;75.00;32.63;;;;;;;;;;5004290;28;20489;-69
2022/11/26 05:15:55;;;;;;;75.23;32.37;;;;;;;;;;4989418;28;20482;-68
2022/11/26 05:18:21;;;;;;;76.60;31.87;;;;;;;;;;4990655;28;20511;-69
2022/11/26 05:20:48;;;;;;;68.03;30.73;;;;;;;;;;4990386;28;20483;-69
2022/11/26 05:23:14;;;;;;;71.50;32.00;;;;;;;;;;4990484;28;20455;-69
2022/11/26 05:25:41;;;;;;;72.30;30.83;;;;;;;;;;4990503;28;20479;-69
2022/11/26 05:28:07;;;;;;;67.23;31.00;;;;;;;;;;4989934;28;20557;-69
2022/11/26 05:30:58;;;;;;;69.57;30.10;;;;;;;;;;4995090;28;20441;-69
2022/11/26 05:33:25;;;;;;;77.70;34.23;;;;;;;;;;4979691;28;20483;-69
2022/11/26 05:35:51;;;;;;;66.93;28.90;;;;;;;;;;4998552;28;20555;-69
2022/11/26 05:38:18;;;;;;;69.67;29.83;;;;;;;;;;4969225;28;20480;-69
2022/11/26 05:40:44;;;;;;;70.43;30.60;;;;;;;;;;4979078;28;20500;-69
2022/11/26 05:43:11;;;;;;;67.63;28.80;;;;;;;;;;4974501;28;20463;-69
2022/11/26 05:45:38;;;;;;;64.40;29.73;;;;;;;;;;4987454;28;20440;-69
2022/11/26 05:48:05;;;;;;;60.73;29.03;;;;;;;;;;4988686;28;20858;-68
2022/11/26 05:50:31;;;;;;;58.03;26.80;;;;;;;;;;4983791;28;20441;-68
2022/11/26 05:52:59;;;;;;;69.63;27.60;;;;;;;;;;4981302;28;20526;-69
2022/11/26 05:55:26;;;;;;;59.53;26.80;;;;;;;;;;4989222;28;20556;-69
2022/11/26 05:58:10;;;;;;;55.43;24.57;;;;;;;;;;4987054;28;20552;-69
2022/11/26 06:00:36;;;;;;;45.53;22.07;;;;;;;;;;4972766;28;20474;-68
2022/11/26 06:03:03;;;;;;;45.50;21.50;;;;;;;;;;4986881;28;20464;-69
2022/11/26 06:05:30;;;;;;;40.07;20.80;;;;;;;;;;4991650;28;20431;-69
2022/11/26 06:07:56;;;;;;;37.17;19.07;;;;;;;;;;5008220;28;20501;-69
2022/11/26 06:10:41;;;;;;;39.93;20.33;;;;;;;;;;4970576;28;21084;-69
2022/11/26 06:13:08;;;;;;;40.53;19.00;;;;;;;;;;4996592;28;20440;-68
2022/11/26 06:15:34;;;;;;;39.40;20.30;;;;;;;;;;4971096;28;20829;-69
2022/11/26 06:18:01;;;;;;;39.60;20.73;;;;;;;;;;4985206;28;20469;-69
2022/11/26 06:20:27;;;;;;;37.83;20.40;;;;;;;;;;4970247;28;20838;-68
2022/11/26 06:22:54;;;;;;;40.50;20.57;;;;;;;;;;4989864;28;20484;-69
2022/11/26 06:25:21;;;;;;;43.43;21.40;;;;;;;;;;4988655;28;20447;-69
2022/11/26 06:27:47;;;;;;;39.00;20.23;;;;;;;;;;4987133;28;20943;-68
2022/11/26 06:30:14;;;;;;;40.00;20.33;;;;;;;;;;5003785;28;20540;-69
2022/11/26 06:32:41;;;;;;;35.03;18.60;;;;;;;;;;4976754;28;21024;-69
2022/11/26 06:35:07;;;;;;;37.70;19.67;;;;;;;;;;4985700;28;20515;-68
2022/11/26 06:37:51;;;;;;;37.20;18.17;;;;;;;;;;4988145;28;20439;-69
2022/11/26 06:40:18;;;;;;;33.17;18.83;;;;;;;;;;4991686;28;20491;-68
2022/11/26 06:43:02;;;;;;;35.13;18.00;;;;;;;;;;5019259;28;20932;-68
2022/11/26 06:45:29;;;;;;;31.60;18.00;;;;;;;;;;5009968;28;20541;-69
2022/11/26 06:47:56;;;;;;;32.67;17.73;;;;;;;;;;4990759;28;20440;-69
2022/11/26 06:50:23;;;;;;;33.73;17.73;;;;;;;;;;4977788;28;20534;-69
2022/11/26 06:52:52;;;;;;;46.33;24.63;;;;;;;;;;4992763;28;20467;-69
2022/11/26 06:55:19;;;;;;;48.17;27.10;;;;;;;;;;4979337;28;20461;-69
2022/11/26 06:57:50;;;;;;;44.60;24.53;;;;;;;;;;4988243;28;20452;-69
2022/11/26 07:00:17;;;;;;;32.00;17.90;;;;;;;;;;5006970;28;20507;-69
2022/11/26 07:03:01;;;;;;;30.07;16.67;;;;;;;;;;4992883;28;20422;-69
2022/11/26 07:05:27;;;;;;;29.97;16.83;;;;;;;;;;5006538;28;20533;-69
2022/11/26 07:07:54;;;;;;;28.07;16.40;;;;;;;;;;4992675;28;20502;-69
2022/11/26 07:10:21;;;;;;;30.77;16.97;;;;;;;;;;4980235;28;20481;-69
2022/11/26 07:12:48;;;;;;;28.77;15.93;;;;;;;;;;4997745;28;20451;-69
2022/11/26 07:15:16;;;;;;;27.37;15.63;;;;;;;;;;4977933;28;20524;-69
2022/11/26 07:17:43;;;;;;;31.10;15.73;;;;;;;;;;4989782;28;20458;-69
2022/11/26 07:20:09;;;;;;;27.73;15.73;;;;;;;;;;4972963;28;20485;-69
2022/11/26 07:22:36;;;;;;;27.93;15.23;;;;;;;;;;4973109;28;21024;-69
2022/11/26 07:25:03;;;;;;;28.93;16.13;;;;;;;;;;4975234;28;20487;-69
2022/11/26 07:27:36;;;;;;;33.53;19.33;;;;;;;;;;4990467;28;20447;-69
2022/11/26 07:30:03;;;;;;;32.43;16.97;;;;;;;;;;4989368;28;20459;-69
2022/11/26 07:32:30;;;;;;;31.67;15.77;;;;;;;;;;4990489;28;20515;-69
2022/11/26 07:35:01;;;;;;;33.30;18.13;;;;;;;;;;4993740;28;20486;-69
2022/11/26 07:37:28;;;;;;;24.60;15.23;;;;;;;;;;4979546;28;20808;-69
2022/11/26 07:39:54;;;;;;;27.83;16.30;;;;;;;;;;4972738;28;20545;-69
2022/11/26 07:42:21;;;;;;;28.20;16.67;;;;;;;;;;4983442;28;20479;-69
2022/11/26 07:44:47;;;;;;;26.57;15.67;;;;;;;;;;4972391;28;20633;-69
2022/11/26 07:47:14;;;;;;;24.97;15.13;;;;;;;;;;4972865;28;20462;-69
2022/11/26 07:49:41;;;;;;;22.73;14.60;;;;;;;;;;4972910;28;20848;-69
2022/11/26 07:52:07;;;;;;;26.17;14.43;;;;;;;;;;4974402;28;20449;-69
2022/11/26 07:54:34;;;;;;;25.57;14.80;;;;;;;;;;4976415;28;20488;-68
2022/11/26 07:57:01;;;;;;;24.20;14.10;;;;;;;;;;4982153;28;20456;-69
2022/11/26 07:59:27;;;;;;;25.60;13.90;;;;;;;;;;4982219;28;20538;-69
2022/11/26 08:01:54;;;;;;;24.00;14.27;;;;;;;;;;4993567;28;20471;-69
2022/11/26 08:04:20;;;;;;;27.50;14.43;;;;;;;;;;4993675;28;20453;-69
2022/11/26 08:06:47;;;;;;;24.33;13.93;;;;;;;;;;4987457;28;20464;-69
2022/11/26 08:09:14;;;;;;;28.60;14.13;;;;;;;;;;4988626;28;20983;-69
2022/11/26 08:11:40;;;;;;;27.43;15.20;;;;;;;;;;4992621;28;20794;-69
2022/11/26 08:14:08;;;;;;;34.47;17.57;;;;;;;;;;4998062;28;20839;-69
2022/11/26 08:16:35;;;;;;;40.17;19.07;;;;;;;;;;4991091;28;20455;-69
2022/11/26 08:19:06;;;;;;;34.87;17.93;;;;;;;;;;4993486;28;20819;-69
2022/11/26 08:21:34;;;;;;;35.13;18.00;;;;;;;;;;4991735;28;20526;-69
2022/11/26 08:24:02;;;;;;;34.27;17.70;;;;;;;;;;4991100;28;20547;-69
2022/11/26 08:26:29;;;;;;;34.60;18.13;;;;;;;;;;4987307;28;20460;-69
2022/11/26 08:29:13;;;;;;;30.07;17.17;;;;;;;;;;4990130;28;20575;-69
2022/11/26 08:31:41;;;;;;;28.80;16.60;;;;;;;;;;4989949;28;20990;-69
2022/11/26 08:34:25;;;;;;;32.00;16.87;;;;;;;;;;4989612;28;20455;-69
2022/11/26 08:36:53;;;;;;;29.93;16.93;;;;;;;;;;4990233;28;20540;-69
2022/11/26 08:39:37;;;;;;;29.73;17.20;;;;;;;;;;4992443;28;20800;-69
2022/11/26 08:42:04;;;;;;;31.03;18.23;;;;;;;;;;4977387;28;20511;-68
2022/11/26 08:44:31;;;;;;;35.90;18.43;;;;;;;;;;4981350;28;20465;-69
2022/11/26 08:46:57;;;;;;;35.50;17.73;;;;;;;;;;4996075;28;20444;-69
2022/11/26 08:49:24;;;;;;;31.87;17.57;;;;;;;;;;4992426;28;20953;-68
2022/11/26 08:51:50;;;;;;;33.10;18.03;;;;;;;;;;4992319;28;20522;-69
2022/11/26 08:54:17;;;;;;;35.17;19.13;;;;;;;;;;4993095;28;20510;-69
2022/11/26 08:56:43;;;;;;;35.43;19.83;;;;;;;;;;4985401;28;20487;-69
2022/11/26 08:59:10;;;;;;;35.97;19.87;;;;;;;;;;4990884;28;20462;-69
2022/11/26 09:01:39;;;;;;;38.60;20.33;;;;;;;;;;4991525;28;20475;-69
2022/11/26 09:04:06;;;;;;;38.73;20.47;;;;;;;;;;4985664;28;20491;-69
2022/11/26 09:06:50;;;;;;;34.90;19.83;;;;;;;;;;4989567;28;20527;-69
2022/11/26 09:09:17;;;;;;;36.57;19.47;;;;;;;;;;4992432;28;20846;-69
2022/11/26 09:11:47;;;;;;;36.53;20.00;;;;;;;;;;4993602;28;20458;-69
2022/11/26 09:14:15;;;;;;;33.40;20.10;;;;;;;;;;4994028;28;20515;-69
2022/11/26 09:16:42;;;;;;;32.40;19.53;;;;;;;;;;5000977;28;20447;-69
2022/11/26 09:19:10;;;;;;;30.63;18.60;;;;;;;;;;4996284;28;20447;-69
2022/11/26 09:21:37;;;;;;;37.27;21.13;;;;;;;;;;4992818;28;21009;-69
2022/11/26 09:24:04;;;;;;;36.27;20.20;;;;;;;;;;4992152;28;20458;-69
2022/11/26 09:26:31;;;;;;;46.63;22.83;;;;;;;;;;4992878;28;20425;-70
2022/11/26 09:28:57;;;;;;;71.20;32.73;;;;;;;;;;4983972;28;20456;-69
2022/11/26 09:31:24;;;;;;;49.63;25.93;;;;;;;;;;4990118;28;20444;-69
2022/11/26 09:33:53;;;;;;;38.47;24.00;;;;;;;;;;4991002;28;20501;-69
2022/11/26 09:36:20;;;;;;;32.47;18.90;;;;;;;;;;4987953;28;20955;-69
2022/11/26 09:38:48;;;;;;;33.73;19.70;;;;;;;;;;4992689;28;20800;-69
2022/11/26 09:41:48;;;;;;;35.17;20.63;;;;;;;;;;4979014;28;20538;-69
2022/11/26 09:44:33;;;;;;;38.07;23.07;;;;;;;;;;4993503;28;20454;-69
2022/11/26 09:47:15;;;;;;;31.67;19.23;;;;;;;;;;4979867;28;20629;-67
2022/11/26 09:49:44;;;;;;;48.47;26.83;;;;;;;;;;4987488;28;20467;-67
2022/11/26 09:52:11;;;;;;;32.83;18.70;;;;;;;;;;4988842;28;20455;-67
2022/11/26 09:54:38;;;;;;;29.40;16.43;;;;;;;;;;4984948;28;20447;-70
2022/11/26 09:57:09;;;;;;;33.10;18.10;;;;;;;;;;5006321;28;20517;-71
2022/11/26 09:59:35;;;;;;;32.47;18.47;;;;;;;;;;5003482;28;20526;-68
2022/11/26 10:02:02;;;;;;;31.83;18.57;;;;;;;;;;4990699;28;20487;-71
2022/11/26 10:04:30;;;;;;;39.17;22.57;;;;;;;;;;4986035;28;20817;-70
2022/11/26 10:07:03;;;;;;;29.77;16.00;;;;;;;;;;4993836;28;20461;-70
2022/11/26 10:09:43;;;;;;;27.47;14.73;;;;;;;;;;4996150;28;21285;-71
2022/11/26 10:12:15;;;;;;;27.67;16.07;;;;;;;;;;4981222;28;20455;-70
2022/11/26 10:14:59;;;;;;;28.27;16.03;;;;;;;;;;4983165;28;21021;-70
2022/11/26 10:17:46;;;;;;;35.67;18.90;;;;;;;;;;5002555;28;20431;-70
2022/11/26 10:20:28;;;;;;;30.87;17.83;;;;;;;;;;4987561;28;20494;-70
2022/11/26 10:23:11;;;;;;;55.73;30.93;;;;;;;;;;4992660;28;20471;-70
2022/11/26 10:25:58;;;;;;;33.47;20.00;;;;;;;;;;4985866;28;20455;-70
2022/11/26 10:28:25;;;;;;;24.20;13.57;;;;;;;;;;4972144;28;21018;-70
2022/11/26 10:30:57;;;;;;;24.93;14.40;;;;;;;;;;5004141;28;20424;-70
2022/11/26 10:33:23;;;;;;;24.03;14.63;;;;;;;;;;4989230;28;20454;-70
2022/11/26 10:35:50;;;;;;;24.17;14.63;;;;;;;;;;4994551;28;20428;-71
2022/11/26 10:38:17;;;;;;;26.00;14.57;;;;;;;;;;4984688;28;20463;-71
2022/11/26 10:40:44;;;;;;;26.57;15.33;;;;;;;;;;4988680;28;20450;-70
2022/11/26 10:43:22;;;;;;;27.50;16.83;;;;;;;;;;4994847;28;20470;-71
2022/11/26 10:45:53;;;;;;;27.00;14.83;;;;;;;;;;4990872;28;20439;-68
2022/11/26 10:48:20;;;;;;;26.63;15.07;;;;;;;;;;5007312;28;20477;-69
2022/11/26 10:51:13;;;;;;;29.47;16.33;;;;;;;;;;4991582;28;20447;-73
2022/11/26 10:53:49;;;;;;;26.73;15.23;;;;;;;;;;4971729;28;20586;-74
2022/11/26 10:56:16;;;;;;;25.47;14.70;;;;;;;;;;4994080;28;20794;-73
2022/11/26 10:58:43;;;;;;;25.87;15.50;;;;;;;;;;4998625;28;20451;-72
2022/11/26 11:01:13;;;;;;;24.93;14.90;;;;;;;;;;4987104;28;20483;-72
2022/11/26 11:04:09;;;;;;;27.33;15.00;;;;;;;;;;4984632;28;20988;-71
2022/11/26 11:06:41;;;;;;;25.47;15.40;;;;;;;;;;4987944;28;20440;-72
2022/11/26 11:09:31;;;;;;;25.63;14.73;;;;;;;;;;4984934;28;20458;-73
2022/11/26 11:12:17;;;;;;;27.37;14.93;;;;;;;;;;4986835;28;20842;-71
2022/11/26 11:14:44;;;;;;;25.87;15.07;;;;;;;;;;4990560;28;20835;-72
2022/11/26 11:17:38;;;;;;;26.97;16.00;;;;;;;;;;4997369;28;20467;-75
2022/11/26 11:20:13;;;;;;;26.87;16.00;;;;;;;;;;4981131;28;20474;-74
2022/11/26 11:22:44;;;;;;;29.77;16.33;;;;;;;;;;4990681;28;21086;-71
2022/11/26 11:25:20;;;;;;;33.00;17.43;;;;;;;;;;4983414;28;20473;-72
2022/11/26 11:27:48;;;;;;;40.20;20.57;;;;;;;;;;4991887;28;20443;-73
2022/11/26 11:30:25;;;;;;;32.00;17.13;;;;;;;;;;4983836;28;20460;-68
2022/11/26 11:32:56;;;;;;;29.97;15.93;;;;;;;;;;4989194;28;20518;-65
2022/11/26 11:35:24;;;;;;;39.53;22.17;;;;;;;;;;4988057;28;20467;-67
2022/11/26 11:37:52;;;;;;;40.50;21.63;;;;;;;;;;5004799;28;20541;-66
2022/11/26 11:40:26;;;;;;;32.67;19.10;;;;;;;;;;4991405;28;20463;-62
2022/11/26 11:43:00;;;;;;;26.73;15.37;;;;;;;;;;4995126;28;20534;-72
2022/11/26 11:45:33;;;;;;;26.00;15.60;;;;;;;;;;4989490;28;20430;-72
2022/11/26 11:48:12;;;;;;;25.53;15.70;;;;;;;;;;4998328;28;20454;-76
2022/11/26 11:50:41;;;;;;;28.20;16.30;;;;;;;;;;4984964;28;20515;-76
2022/11/26 11:53:08;;;;;;;26.47;15.30;;;;;;;;;;4982824;28;20722;-73
2022/11/26 11:55:46;;;;;;;31.13;17.27;;;;;;;;;;4986362;28;20444;-70
2022/11/26 11:58:16;;;;;;;34.40;18.87;;;;;;;;;;5005877;28;20440;-71
2022/11/26 12:00:43;;;;;;;36.87;20.37;;;;;;;;;;4985852;28;20451;-73
2022/11/26 12:03:10;;;;;;;22.17;13.97;;;;;;;;;;4992725;28;20483;-74
2022/11/26 12:05:40;;;;;;;34.83;19.70;;;;;;;;;;4991351;28;20443;-77
2022/11/26 12:08:16;;;;;;;36.13;22.33;;;;;;;;;;4987258;28;20536;-79
2022/11/26 12:11:09;;;;;;;24.90;16.03;;;;;;;;;;4996089;28;20470;-75
2022/11/26 12:13:39;;;;;;;26.03;15.23;;;;;;;;;;4995681;28;20432;-79
2022/11/26 12:16:06;;;;;;;23.07;14.07;;;;;;;;;;4997428;28;20233;-76
2022/11/26 12:18:33;;;;;;;27.33;15.63;;;;;;;;;;5001507;28;20470;-69
2022/11/26 12:21:07;;;;;;;22.60;13.67;;;;;;;;;;4989419;28;20424;-69
2022/11/26 12:23:34;;;;;;;21.97;13.80;;;;;;;;;;4983272;28;20486;-70
2022/11/26 12:26:05;;;;;;;20.67;13.30;;;;;;;;;;4990847;28;20467;-70
2022/11/26 12:28:40;;;;;;;24.37;13.90;;;;;;;;;;4974890;28;20443;-70
2022/11/26 12:31:14;;;;;;;25.57;15.17;;;;;;;;;;4986316;28;20454;-70
2022/11/26 12:33:51;;;;;;;22.20;14.77;;;;;;;;;;4988414;28;20471;-74
2022/11/26 12:36:49;;;;;;;32.60;19.17;;;;;;;;;;4993830;28;20461;-74
2022/11/26 12:39:19;;;;;;;113.27;63.57;;;;;;;;;;4989238;28;20440;-78
2022/11/26 12:41:50;;;;;;;55.53;33.83;;;;;;;;;;4990624;28;20534;-74
2022/11/26 12:44:43;;;;;;;30.50;18.43;;;;;;;;;;4975893;28;20684;-74
2022/11/26 12:47:10;;;;;;;24.60;14.73;;;;;;;;;;4990444;28;20498;-74
2022/11/26 12:49:41;;;;;;;23.87;14.37;;;;;;;;;;4991279;28;20440;-74
2022/11/26 12:52:43;;;;;;;35.23;21.90;;;;;;;;;;4993617;28;20939;-74
2022/11/26 12:55:30;;;;;;;22.63;13.40;;;;;;;;;;4942526;28;20461;-72
2022/11/26 12:57:57;;;;;;;25.20;14.80;;;;;;;;;;4986954;28;20513;-74
2022/11/26 13:00:28;;;;;;;24.67;14.93;;;;;;;;;;4992061;28;20498;-75
2022/11/26 13:03:01;;;;;;;22.93;13.60;;;;;;;;;;4978274;28;20488;-76
2022/11/26 13:06:02;;;;;;;24.03;14.13;;;;;;;;;;4984742;28;20920;-75
2022/11/26 13:08:35;;;;;;;24.03;13.57;;;;;;;;;;4991572;28;20447;-75
2022/11/26 13:11:21;;;;;;;22.77;14.17;;;;;;;;;;4992783;28;20448;-76
2022/11/26 13:14:03;;;;;;;24.50;13.80;;;;;;;;;;4988278;28;20452;-76
2022/11/26 13:16:33;;;;;;;26.13;14.47;;;;;;;;;;4983603;28;20498;-75
2022/11/26 13:19:03;;;;;;;26.13;14.17;;;;;;;;;;4988086;28;20550;-75
2022/11/26 13:21:47;;;;;;;27.57;16.53;;;;;;;;;;5001944;28;20460;-75
2022/11/26 13:24:35;;;;;;;25.37;15.40;;;;;;;;;;4988737;28;20456;-75
2022/11/26 13:27:18;;;;;;;24.83;15.60;;;;;;;;;;4985012;28;20188;-75
2022/11/26 13:29:57;;;;;;;26.67;15.83;;;;;;;;;;4988643;28;20450;-75
2022/11/26 13:32:47;;;;;;;34.37;20.23;;;;;;;;;;4982780;28;20946;-75
2022/11/26 13:35:17;;;;;;;33.47;18.87;;;;;;;;;;4981603;28;20448;-74
2022/11/26 13:38:02;;;;;;;27.73;16.03;;;;;;;;;;4986071;28;20483;-75
2022/11/26 13:40:31;;;;;;;36.93;24.97;;;;;;;;;;4979263;28;20455;-72
2022/11/26 13:43:08;;;;;;;63.80;43.93;;;;;;;;;;4997073;28;20491;-74
2022/11/26 13:45:54;;;;;;;44.10;31.37;;;;;;;;;;4979534;28;20476;-74
2022/11/26 13:48:33;;;;;;;28.70;17.97;;;;;;;;;;4982496;28;20479;-74
2022/11/26 13:51:05;;;;;;;22.73;14.50;;;;;;;;;;4989348;28;20465;-74
2022/11/26 13:53:36;;;;;;;26.73;17.13;;;;;;;;;;4985620;28;20542;-73
2022/11/26 13:56:03;;;;;;;26.37;16.87;;;;;;;;;;4956047;28;21263;-75
2022/11/26 13:58:30;;;;;;;27.43;15.67;;;;;;;;;;4988038;28;20452;-74
2022/11/26 14:01:17;;;;;;;25.43;15.80;;;;;;;;;;4981270;28;20470;-75
2022/11/26 14:04:02;;;;;;;48.13;30.73;;;;;;;;;;4987975;28;20448;-74
2022/11/26 14:06:29;;;;;;;76.57;48.70;;;;;;;;;;4988410;28;20421;-75
2022/11/26 14:08:56;;;;;;;48.57;33.20;;;;;;;;;;4987259;28;20990;-74
2022/11/26 14:11:41;;;;;;;52.47;35.67;;;;;;;;;;4979353;28;20460;-74
2022/11/26 14:14:26;;;;;;;43.30;27.83;;;;;;;;;;4978368;28;20239;-74
2022/11/26 14:16:59;;;;;;;50.50;34.90;;;;;;;;;;4987913;28;20515;-75
2022/11/26 14:19:38;;;;;;;46.13;31.10;;;;;;;;;;4978932;28;20429;-74
2022/11/26 14:22:06;;;;;;;42.83;27.97;;;;;;;;;;4978664;28;20471;-74
2022/11/26 14:24:49;;;;;;;35.70;22.73;;;;;;;;;;4971754;28;20960;-74
2022/11/26 14:27:17;;;;;;;28.07;17.63;;;;;;;;;;4984676;28;20199;-74
2022/11/26 14:29:44;;;;;;;24.83;14.87;;;;;;;;;;4985643;28;20437;-75
2022/11/26 14:32:15;;;;;;;24.73;14.73;;;;;;;;;;4989857;28;20449;-75
2022/11/26 14:34:44;;;;;;;25.60;14.80;;;;;;;;;;4991254;28;20444;-74
2022/11/26 14:37:11;;;;;;;27.70;16.13;;;;;;;;;;4990370;28;20435;-75
2022/11/26 14:39:38;;;;;;;30.97;16.93;;;;;;;;;;4987924;28;20959;-74